Time;durP1;ratioP1;P1;durP2;ratioP2;P2;SDS_P1;SDS_P2;PMS_P1;PMS_P2;Temp;Humidity;BMP_temperature;BMP_pressure;BME280_temperature;BME280_humidity;BME280_pressure;Samples;Min_cycle;Max_cycle;Signal;HPM_P1;HPM_P2
2022/08/13 08:43:10;;;;;;;;;;;;;;;27.91;31.32;99780.53;1084554;46;20864;-77
2022/08/13 16:44:36;;;;;;;;;;;;;;;30.57;20.69;99382.94;1084586;54;19979;-78
2022/08/13 16:45:38;;;;;;;;;;;;;;;30.49;20.73;99400.09;1085227;54;19974;-77
2022/08/13 16:46:42;;;;;;;;;;;;;;;30.47;20.65;99396.81;1086041;38;20358;-77
2022/08/13 16:47:43;;;;;;;;;;;;;;;30.42;20.83;99399.66;1085979;38;20353;-78
2022/08/13 16:48:47;;;;;;;;;;;;;;;30.40;20.84;99396.34;1085696;54;19950;-78
2022/08/13 16:49:48;;;;;;;;;;;;;;;30.42;21.00;99399.66;1085729;54;19946;-77
2022/08/13 16:50:52;;;;;;;;;;;;;;;30.40;20.80;99397.16;1085422;54;19953;-78
2022/08/13 16:51:55;;;;;;;;;;;;;;;30.46;20.76;99401.53;1085715;54;19946;-77
2022/08/13 16:52:59;;;;;;;;;;;;;;;30.53;20.32;99392.91;1085936;54;19954;-77
2022/08/13 16:54:00;;;;;;;;;;;;;;;30.59;20.37;99391.75;1085880;54;19971;-77
2022/08/13 16:55:05;;;;;;;;;;;;;;;30.63;20.35;99390.03;1085831;54;19965;-78
2022/08/13 16:56:09;;;;;;;;;;;;;;;30.59;20.40;99383.47;1085743;54;20041;-78
2022/08/13 16:57:10;;;;;;;;;;;;;;;30.51;20.48;99392.38;1085522;54;19980;-77
2022/08/13 16:58:14;;;;;;;;;;;;;;;30.50;20.40;99385.22;1085846;54;19939;-78
2022/08/13 16:59:15;;;;;;;;;;;;;;;30.51;20.46;99381.34;1087164;38;20352;-78
2022/08/13 17:00:24;;;;;;;;;;;;;;;30.54;20.26;99380.75;1086107;54;19947;-77
2022/08/13 17:01:27;;;;;;;;;;;;;;;30.49;20.51;99387.13;1086499;38;20437;-77
2022/08/13 17:09:10;;;;;;;;;;;;;;;30.41;20.53;99386.97;1086224;31;20413;-78
2022/08/13 17:10:15;;;;;;;;;;;;;;;30.43;20.13;99396.59;1085866;54;19989;-78
2022/08/13 17:11:17;;;;;;;;;;;;;;;30.43;20.05;99382.81;1086296;38;20382;-77
2022/08/13 17:12:21;;;;;;;;;;;;;;;30.42;20.11;99389.44;1085714;54;19970;-78
2022/08/13 17:13:23;;;;;;;;;;;;;;;30.48;20.35;99395.72;1085846;54;19939;-78
2022/08/13 17:14:28;;;;;;;;;;;;;;;30.49;20.22;99378.06;1085560;54;19963;-77
2022/08/13 17:15:33;;;;;;;;;;;;;;;30.52;20.15;99388.50;1085529;54;19946;-78
2022/08/13 17:16:37;;;;;;;;;;;;;;;30.46;20.29;99381.38;1085668;54;19958;-78
2022/08/13 17:17:38;;;;;;;;;;;;;;;30.35;20.17;99389.78;1085530;54;19946;-78
2022/08/13 17:18:43;;;;;;;;;;;;;;;30.34;20.17;99385.38;1085826;54;20441;-78
2022/08/13 17:19:44;;;;;;;;;;;;;;;30.26;20.04;99380.50;1085719;54;20002;-77
2022/08/13 17:20:48;;;;;;;;;;;;;;;30.18;20.39;99373.69;1085807;54;19947;-78
2022/08/13 17:21:49;;;;;;;;;;;;;;;30.20;20.30;99387.19;1085819;54;19954;-77
2022/08/13 17:22:53;;;;;;;;;;;;;;;30.20;20.28;99387.19;1085934;54;20509;-78
2022/08/13 17:23:58;;;;;;;;;;;;;;;30.22;20.20;99389.66;1086175;54;19947;-78
2022/08/13 17:25:01;;;;;;;;;;;;;;;30.20;20.02;99381.69;1085922;54;19963;-78
2022/08/13 17:26:04;;;;;;;;;;;;;;;30.21;20.19;99382.50;1085829;54;19938;-78
2022/08/13 17:27:08;;;;;;;;;;;;;;;30.24;20.28;99382.72;1085908;54;19946;-78
2022/08/13 17:28:09;;;;;;;;;;;;;;;30.26;20.72;99380.50;1086021;54;19951;-78
2022/08/13 17:29:17;;;;;;;;;;;;;;;30.31;20.19;99376.88;1086415;46;19946;-77
2022/08/13 17:30:20;;;;;;;;;;;;;;;30.34;20.11;99377.09;1086043;54;19947;-78
2022/08/13 17:31:25;;;;;;;;;;;;;;;30.34;20.49;99381.81;1085747;54;19955;-78
2022/08/13 17:32:29;;;;;;;;;;;;;;;30.26;20.28;99379.69;1085707;54;19974;-77
2022/08/13 17:33:31;;;;;;;;;;;;;;;30.22;20.45;99378.63;1085583;54;19981;-78
2022/08/13 17:34:34;;;;;;;;;;;;;;;30.17;20.40;99382.25;1085940;54;19946;-78
2022/08/13 17:35:35;;;;;;;;;;;;;;;30.16;20.66;99372.34;1086177;54;19947;-77
2022/08/13 17:36:39;;;;;;;;;;;;;;;30.15;20.55;99367.94;1086850;31;20423;-78
2022/08/13 17:37:40;;;;;;;;;;;;;;;30.12;20.48;99374.06;1086316;54;20454;-78
2022/08/13 17:38:44;;;;;;;;;;;;;;;30.06;20.89;99364.19;1086118;54;19939;-78
2022/08/13 17:39:45;;;;;;;;;;;;;;;30.06;20.76;99372.44;1087433;38;20360;-78
2022/08/13 17:40:50;;;;;;;;;;;;;;;30.07;20.83;99371.34;1086134;54;19951;-78
2022/08/13 17:41:53;;;;;;;;;;;;;;;30.02;20.64;99370.28;1086020;54;19947;-79
2022/08/13 17:42:56;;;;;;;;;;;;;;;29.99;20.99;99367.31;1086912;54;20680;-78
2022/08/13 17:43:58;;;;;;;;;;;;;;;29.97;20.93;99367.56;1089254;38;20291;-78
2022/08/13 17:45:01;;;;;;;;;;;;;;;29.99;21.06;99365.34;1088980;46;19953;-78
2022/08/13 17:46:02;;;;;;;;;;;;;;;30.01;21.10;99365.06;1089010;54;19946;-78
2022/08/13 17:47:09;;;;;;;;;;;;;;;29.98;20.85;99369.22;1088628;46;19945;-79
2022/08/13 17:48:10;;;;;;;;;;;;;;;30.01;21.03;99368.66;1088487;54;20015;-78
2022/08/13 17:49:15;;;;;;;;;;;;;;;30.03;21.06;99366.44;1088685;54;19939;-78
2022/08/13 17:50:17;;;;;;;;;;;;;;;30.04;20.96;99368.03;1088553;54;19946;-78
2022/08/13 17:51:22;;;;;;;;;;;;;;;30.08;21.05;99367.47;1088490;54;19951;-78
2022/08/13 17:52:24;;;;;;;;;;;;;;;30.09;21.01;99371.88;1088514;54;19938;-78
2022/08/13 17:53:28;;;;;;;;;;;;;;;30.08;20.97;99367.47;1088622;54;19939;-79
2022/08/13 17:54:32;;;;;;;;;;;;;;;30.02;21.12;99370.28;1088757;54;19938;-81
2022/08/13 17:55:34;;;;;;;;;;;;;;;30.00;21.46;99374.44;1086853;54;19951;-78
2022/08/13 17:56:37;;;;;;;;;;;;;;;30.00;21.26;99371.69;1087128;54;19982;-78
2022/08/13 17:57:38;;;;;;;;;;;;;;;29.98;21.46;99371.16;1086505;54;19951;-77
2022/08/13 17:58:42;;;;;;;;;;;;;;;30.00;21.21;99372.50;1084498;54;19946;-78
2022/08/13 17:59:43;;;;;;;;;;;;;;;30.01;21.15;99365.91;1084532;54;19954;-78
2022/08/13 18:00:47;;;;;;;;;;;;;;;30.02;21.29;99374.97;1084568;54;19951;-78
2022/08/13 18:01:51;;;;;;;;;;;;;;;29.99;21.32;99376.38;1084422;54;19958;-77
2022/08/13 18:02:55;;;;;;;;;;;;;;;29.98;21.37;99373.91;1084218;54;19957;-78
2022/08/13 18:04:00;;;;;;;;;;;;;;;29.92;21.29;99372.28;1084692;39;20528;-78
2022/08/13 18:05:04;;;;;;;;;;;;;;;29.85;21.25;99375.41;1084578;54;19953;-77
2022/08/13 18:06:06;;;;;;;;;;;;;;;29.86;21.40;99377.00;1084528;54;20030;-77
2022/08/13 18:07:11;;;;;;;;;;;;;;;29.86;21.46;99379.75;1084347;54;19951;-78
2022/08/13 18:08:14;;;;;;;;;;;;;;;29.85;21.51;99375.41;1085281;39;20374;-77
2022/08/13 18:09:19;;;;;;;;;;;;;;;29.86;21.50;99382.53;1084044;54;19974;-78
2022/08/13 18:10:22;;;;;;;;;;;;;;;29.88;21.33;99375.63;1084013;54;19977;-78
2022/08/13 18:11:26;;;;;;;;;;;;;;;29.85;21.27;99375.41;1084634;54;19950;-78
2022/08/13 18:12:27;;;;;;;;;;;;;;;29.84;21.58;99379.25;1085263;39;20222;-78
2022/08/13 18:13:31;;;;;;;;;;;;;;;29.86;21.52;99372.34;1084465;54;19947;-78
2022/08/13 18:14:32;;;;;;;;;;;;;;;29.86;21.66;99377.00;1084510;54;19946;-79
2022/08/13 18:15:36;;;;;;;;;;;;;;;29.82;21.37;99375.97;1085232;39;21089;-78
2022/08/13 18:16:37;;;;;;;;;;;;;;;29.78;21.50;99374.88;1084566;54;19952;-78
2022/08/13 18:17:42;;;;;;;;;;;;;;;29.79;21.78;99373.78;1084497;54;19953;-78
2022/08/13 18:18:47;;;;;;;;;;;;;;;29.80;21.62;99372.66;1084482;54;19969;-77
2022/08/13 18:19:51;;;;;;;;;;;;;;;29.75;21.89;99370.78;1084576;54;20447;-78
2022/08/13 18:20:52;;;;;;;;;;;;;;;29.65;21.89;99379.97;1084587;54;20455;-78
2022/08/13 18:21:56;;;;;;;;;;;;;;;29.62;22.12;99368.69;1084571;54;19954;-78
2022/08/13 18:23:00;;;;;;;;;;;;;;;29.56;22.01;99371.50;1084409;54;19946;-78
2022/08/13 18:24:01;;;;;;;;;;;;;;;29.55;22.09;99371.78;1085274;54;19950;-78
2022/08/13 18:25:06;;;;;;;;;;;;;;;29.52;22.26;99378.66;1085578;54;19947;-78
2022/08/13 18:26:11;;;;;;;;;;;;;;;29.51;22.06;99373.47;1085358;54;19958;-79
2022/08/13 18:27:12;;;;;;;;;;;;;;;29.50;22.26;99374.56;1085412;54;19946;-78
2022/08/13 18:28:16;;;;;;;;;;;;;;;29.50;22.09;99380.06;1085749;54;19950;-79
2022/08/13 18:29:19;;;;;;;;;;;;;;;29.42;22.28;99374.09;1085826;54;19969;-78
2022/08/13 18:30:23;;;;;;;;;;;;;;;29.39;22.26;99377.41;1087919;39;20204;-78
2022/08/13 18:31:24;;;;;;;;;;;;;;;29.36;22.40;99377.16;1085511;54;19951;-78
2022/08/13 18:32:28;;;;;;;;;;;;;;;29.36;22.36;99377.16;1085189;54;19955;-78
2022/08/13 18:33:29;;;;;;;;;;;;;;;29.25;22.53;99373.63;1085795;39;20638;-78
2022/08/13 18:34:36;;;;;;;;;;;;;;;29.24;22.72;99388.50;1084424;54;19962;-78
2022/08/13 18:35:39;;;;;;;;;;;;;;;29.24;22.52;99381.03;1084551;54;19954;-78
2022/08/13 18:36:43;;;;;;;;;;;;;;;29.21;22.74;99381.63;1084578;54;20430;-78
2022/08/13 18:37:44;;;;;;;;;;;;;;;29.22;22.81;99376.94;1084516;54;19974;-78
2022/08/13 18:38:48;;;;;;;;;;;;;;;29.22;22.57;99375.03;1084646;54;19950;-78
2022/08/13 18:39:49;;;;;;;;;;;;;;;29.18;22.80;99378.63;1084428;54;19957;-78
2022/08/13 18:40:53;;;;;;;;;;;;;;;29.16;22.91;99375.34;1084466;54;19993;-79
2022/08/13 18:41:54;;;;;;;;;;;;;;;29.07;22.92;99384.19;1084665;46;20016;-78
2022/08/13 18:42:58;;;;;;;;;;;;;;;29.00;23.07;99383.66;1084896;54;19942;-78
2022/08/13 18:44:02;;;;;;;;;;;;;;;29.02;23.25;99384.22;1084685;54;19946;-78
2022/08/13 18:45:04;;;;;;;;;;;;;;;29.04;22.91;99383.94;1084431;54;20022;-78
2022/08/13 18:46:09;;;;;;;;;;;;;;;29.02;22.98;99384.22;1084697;54;20449;-78
2022/08/13 18:47:10;;;;;;;;;;;;;;;29.02;23.06;99378.72;1084825;54;19951;-77
2022/08/13 18:48:14;;;;;;;;;;;;;;;28.98;23.23;99380.41;1084580;54;20429;-78
2022/08/13 18:49:15;;;;;;;;;;;;;;;29.00;23.00;99374.59;1084845;54;20056;-79
2022/08/13 18:50:23;;;;;;;;;;;;;;;28.95;23.59;99381.75;1084830;54;19969;-77
2022/08/13 18:51:24;;;;;;;;;;;;;;;28.94;23.17;99385.66;1084810;54;19950;-78
2022/08/13 18:52:28;;;;;;;;;;;;;;;28.88;23.06;99386.75;1085780;46;20022;-78
2022/08/13 18:53:32;;;;;;;;;;;;;;;28.85;23.34;99386.50;1085708;54;19945;-78
2022/08/13 18:54:33;;;;;;;;;;;;;;;28.85;23.02;99386.50;1087011;54;19947;-78
2022/08/13 18:55:37;;;;;;;;;;;;;;;28.85;23.36;99381.00;1087469;47;19950;-77
2022/08/13 18:56:38;;;;;;;;;;;;;;;28.81;23.35;99386.25;1087579;54;19951;-78
2022/08/13 18:57:41;;;;;;;;;;;;;;;28.74;23.57;99383.81;1087637;54;19954;-78
2022/08/13 18:58:43;;;;;;;;;;;;;;;28.73;23.44;99389.59;1087702;54;19969;-77
2022/08/13 18:59:47;;;;;;;;;;;;;;;28.68;23.55;99386.81;1087469;54;19950;-78
2022/08/13 19:00:48;;;;;;;;;;;;;;;28.62;23.58;99388.78;1087437;54;19947;-77
2022/08/13 19:01:52;;;;;;;;;;;;;;;28.59;23.69;99390.16;1085804;54;20520;-77
2022/08/13 19:02:55;;;;;;;;;;;;;;;28.58;23.72;99393.19;1084684;54;19947;-77
2022/08/13 19:03:57;;;;;;;;;;;;;;;28.54;23.99;99392.94;1084668;54;19947;-78
2022/08/13 19:05:00;;;;;;;;;;;;;;;28.52;23.84;99392.38;1084964;54;19951;-78
2022/08/13 19:06:05;;;;;;;;;;;;;;;28.55;23.67;99389.09;1084466;54;19947;-78
2022/08/13 19:07:09;;;;;;;;;;;;;;;28.49;23.89;99396.53;1084370;54;19939;-78
2022/08/13 19:08:10;;;;;;;;;;;;;;;28.49;23.71;99384.69;1084625;54;19954;-78
2022/08/13 19:09:14;;;;;;;;;;;;;;;28.47;23.71;99387.72;1084360;54;20437;-78
2022/08/13 19:10:15;;;;;;;;;;;;;;;28.45;23.94;99386.38;1084410;54;20457;-77
2022/08/13 19:11:19;;;;;;;;;;;;;;;28.43;23.80;99385.81;1084424;54;19946;-78
2022/08/13 19:12:20;;;;;;;;;;;;;;;28.41;23.69;99394.34;1084257;54;19939;-77
2022/08/13 19:13:24;;;;;;;;;;;;;;;28.36;23.99;99391.59;1084680;54;19946;-78
2022/08/13 19:14:25;;;;;;;;;;;;;;;28.33;23.99;99389.44;1084004;54;19955;-78
2022/08/13 19:15:30;;;;;;;;;;;;;;;28.31;24.05;99389.69;1082776;54;19950;-77
2022/08/13 19:16:32;;;;;;;;;;;;;;;28.29;23.99;99391.09;1082754;54;19956;-78
2022/08/13 19:17:36;;;;;;;;;;;;;;;28.27;24.16;99394.13;1083155;54;19951;-78
2022/08/13 19:18:37;;;;;;;;;;;;;;;28.23;24.27;99395.75;1083973;54;19951;-77
2022/08/13 19:19:41;;;;;;;;;;;;;;;28.21;24.45;99399.91;1084699;54;19938;-78
2022/08/13 19:20:42;;;;;;;;;;;;;;;28.18;24.39;99391.09;1084320;54;20022;-78
2022/08/13 19:21:49;;;;;;;;;;;;;;;28.17;24.51;99397.69;1084558;54;19946;-78
2022/08/13 19:22:51;;;;;;;;;;;;;;;28.14;24.70;99392.78;1084065;47;19946;-78
2022/08/13 19:23:54;;;;;;;;;;;;;;;28.13;24.54;99402.13;1084499;54;19947;-78
2022/08/13 19:24:55;;;;;;;;;;;;;;;28.10;24.89;99401.84;1084810;46;19970;-78
2022/08/13 19:25:59;;;;;;;;;;;;;;;28.04;24.68;99398.25;1084493;54;19935;-78
2022/08/13 19:27:01;;;;;;;;;;;;;;;28.02;25.02;99400.44;1085372;46;19945;-78
2022/08/13 19:28:05;;;;;;;;;;;;;;;27.99;25.24;99401.00;1084792;54;19961;-77
2022/08/13 19:29:07;;;;;;;;;;;;;;;27.96;25.10;99398.81;1084580;54;20042;-78
2022/08/13 19:30:11;;;;;;;;;;;;;;;27.94;25.06;99398.25;1084568;54;19939;-77
2022/08/13 19:31:12;;;;;;;;;;;;;;;27.91;25.07;99398.81;1084717;54;19939;-78
2022/08/13 19:32:17;;;;;;;;;;;;;;;27.87;25.16;99391.09;1084527;54;20758;-79
2022/08/13 19:33:21;;;;;;;;;;;;;;;27.84;25.17;99397.19;1084361;54;19947;-78
2022/08/13 19:34:28;;;;;;;;;;;;;;;27.78;25.80;99389.22;1086437;54;19989;-79
2022/08/13 19:35:31;;;;;;;;;;;;;;;27.70;25.78;99394.16;1087165;54;19994;-78
2022/08/13 19:36:35;;;;;;;;;;;;;;;27.66;25.62;99390.31;1087252;54;19938;-78
2022/08/13 19:37:39;;;;;;;;;;;;;;;27.59;25.45;99392.50;1087639;46;20575;-77
2022/08/13 19:38:43;;;;;;;;;;;;;;;27.58;25.92;99392.78;1087264;54;19970;-78
2022/08/13 19:39:44;;;;;;;;;;;;;;;27.54;25.74;99387.84;1087252;54;19953;-78
2022/08/13 19:40:48;;;;;;;;;;;;;;;27.55;25.46;99397.72;1092421;39;20726;-78
2022/08/13 19:41:51;;;;;;;;;;;;;;;27.51;26.02;99398.53;1084550;54;19947;-78
2022/08/13 19:42:55;;;;;;;;;;;;;;;27.50;25.99;99392.22;1084718;54;20457;-78
2022/08/13 19:43:56;;;;;;;;;;;;;;;27.47;25.83;99395.53;1084428;54;19950;-78
2022/08/13 19:45:00;;;;;;;;;;;;;;;27.44;26.09;99393.31;1084539;39;20333;-78
2022/08/13 19:46:05;;;;;;;;;;;;;;;27.40;26.20;99395.75;1084469;54;19943;-77
2022/08/13 19:47:08;;;;;;;;;;;;;;;27.41;25.99;99396.56;1084430;54;19953;-78
2022/08/13 19:48:13;;;;;;;;;;;;;;;27.37;26.10;99393.53;1085067;39;20355;-78
2022/08/13 19:49:14;;;;;;;;;;;;;;;27.37;26.24;99401.78;1084323;54;19947;-78
2022/08/13 19:50:19;;;;;;;;;;;;;;;27.36;26.10;99396.56;1084398;54;19994;-78
2022/08/13 19:51:20;;;;;;;;;;;;;;;27.34;26.38;99401.50;1084940;39;20373;-78
2022/08/13 19:52:29;;;;;;;;;;;;;;;27.34;26.09;99393.25;1084201;54;19973;-78
2022/08/13 19:53:35;;;;;;;;;;;;;;;27.32;26.19;99388.06;1084318;54;19951;-77
2022/08/13 19:54:36;;;;;;;;;;;;;;;27.28;26.09;99394.38;1084285;54;19953;-78
2022/08/13 19:55:40;;;;;;;;;;;;;;;27.23;26.33;99398.72;1084374;54;19969;-78
2022/08/13 19:56:43;;;;;;;;;;;;;;;27.19;26.39;99400.38;1084537;54;19952;-77
2022/08/13 19:57:46;;;;;;;;;;;;;;;27.17;26.45;99396.25;1084519;46;19969;-78
2022/08/13 19:58:48;;;;;;;;;;;;;;;27.13;26.48;99401.44;1084411;54;19971;-78
2022/08/13 19:59:57;;;;;;;;;;;;;;;27.08;26.63;99401.44;1084233;54;19950;-78
2022/08/13 20:01:02;;;;;;;;;;;;;;;27.02;26.72;99402.50;1084466;54;19998;-78
2022/08/13 20:02:03;;;;;;;;;;;;;;;27.00;26.57;99401.97;1084337;54;19946;-78
2022/08/13 20:03:07;;;;;;;;;;;;;;;26.99;27.01;99403.06;1084069;54;19950;-78
2022/08/13 20:04:09;;;;;;;;;;;;;;;26.97;26.95;99405.25;1084264;54;19943;-78
2022/08/13 20:05:14;;;;;;;;;;;;;;;26.95;26.75;99408.28;1084369;54;19947;-78
2022/08/13 20:06:18;;;;;;;;;;;;;;;26.94;26.96;99407.44;1084154;54;19970;-78
2022/08/13 20:07:19;;;;;;;;;;;;;;;26.91;26.89;99410.72;1084431;54;19947;-78
2022/08/13 20:08:23;;;;;;;;;;;;;;;26.92;26.84;99409.59;1084185;54;19942;-77
2022/08/13 20:09:27;;;;;;;;;;;;;;;26.88;26.70;99407.69;1084443;54;20496;-77
2022/08/13 20:10:32;;;;;;;;;;;;;;;26.85;26.87;99414.53;1084505;54;19951;-78
2022/08/13 20:11:33;;;;;;;;;;;;;;;26.82;26.52;99409.59;1084380;54;19978;-78
2022/08/13 20:12:37;;;;;;;;;;;;;;;26.80;26.86;99410.94;1084212;54;20231;-78
2022/08/13 20:13:38;;;;;;;;;;;;;;;26.73;27.13;99401.03;1084234;54;19969;-78
2022/08/13 20:14:41;;;;;;;;;;;;;;;26.73;26.83;99400.22;1084373;54;20445;-78
2022/08/13 20:15:44;;;;;;;;;;;;;;;26.68;27.13;99401.03;1084386;54;20433;-77
2022/08/13 20:16:47;;;;;;;;;;;;;;;26.67;27.22;99399.38;1084414;54;19947;-78
2022/08/13 20:17:49;;;;;;;;;;;;;;;26.66;27.11;99403.19;1084317;54;19947;-78
2022/08/13 20:18:53;;;;;;;;;;;;;;;26.66;27.03;99394.97;1084167;54;20706;-77
2022/08/13 20:19:54;;;;;;;;;;;;;;;26.69;27.10;99401.81;1083996;54;19974;-77
2022/08/13 20:20:58;;;;;;;;;;;;;;;26.69;26.85;99405.38;1084359;54;19957;-77
2022/08/13 20:22:01;;;;;;;;;;;;;;;26.67;27.48;99398.53;1084351;54;20449;-77
2022/08/13 20:23:11;;;;;;;;;;;;;;;26.66;26.94;99405.09;1084272;54;19950;-78
2022/08/13 20:24:14;;;;;;;;;;;;;;;26.60;27.43;99410.56;1084592;54;19943;-78
2022/08/13 20:25:21;;;;;;;;;;;;;;;26.57;27.41;99405.59;1084175;54;19946;-77
2022/08/13 20:26:22;;;;;;;;;;;;;;;26.54;27.44;99411.63;1084666;39;20670;-77
2022/08/13 20:27:26;;;;;;;;;;;;;;;26.51;27.32;99409.44;1084418;54;19974;-78
2022/08/13 20:28:27;;;;;;;;;;;;;;;26.50;27.73;99404.22;1084629;54;19947;-78
2022/08/13 20:29:31;;;;;;;;;;;;;;;26.51;27.46;99414.06;1084115;54;19946;-78
2022/08/13 20:30:32;;;;;;;;;;;;;;;26.55;27.29;99406.97;1084421;54;19947;-78
2022/08/13 20:31:37;;;;;;;;;;;;;;;26.56;27.35;99406.69;1084198;54;19973;-78
2022/08/13 20:32:38;;;;;;;;;;;;;;;26.54;27.57;99403.41;1082835;54;19939;-76
2022/08/13 20:33:41;;;;;;;;;;;;;;;26.51;27.90;99409.44;1081801;54;19947;-75
2022/08/13 20:34:45;;;;;;;;;;;;;;;26.49;27.91;99410.78;1082113;54;19958;-76
2022/08/13 20:35:46;;;;;;;;;;;;;;;26.47;27.89;99413.78;1082212;54;20508;-76
2022/08/13 20:36:50;;;;;;;;;;;;;;;26.45;27.83;99405.81;1082167;54;19950;-76
2022/08/13 20:37:52;;;;;;;;;;;;;;;26.44;28.12;99414.31;1082574;39;20444;-76
2022/08/13 20:38:56;;;;;;;;;;;;;;;26.43;28.10;99407.19;1082338;54;19946;-76
2022/08/13 20:39:57;;;;;;;;;;;;;;;26.39;28.17;99406.91;1082212;54;19956;-75
2022/08/13 20:41:04;;;;;;;;;;;;;;;26.36;28.51;99401.09;1082318;54;19978;-75
2022/08/13 20:42:07;;;;;;;;;;;;;;;26.28;28.74;99403.25;1083232;54;19958;-76
2022/08/13 20:43:11;;;;;;;;;;;;;;;26.28;28.59;99402.44;1083573;54;19966;-75
2022/08/13 20:44:12;;;;;;;;;;;;;;;26.30;28.09;99411.22;1083338;54;19965;-76
2022/08/13 20:45:17;;;;;;;;;;;;;;;26.30;28.29;99406.56;1083612;54;19971;-75
2022/08/13 20:46:18;;;;;;;;;;;;;;;26.26;28.50;99402.69;1084050;39;20656;-75
2022/08/13 20:47:22;;;;;;;;;;;;;;;26.27;28.48;99409.81;1083404;54;19950;-76
2022/08/13 20:48:26;;;;;;;;;;;;;;;26.26;28.86;99412.84;1083527;54;19971;-76
2022/08/13 20:49:28;;;;;;;;;;;;;;;26.22;28.55;99412.53;1083460;54;19947;-76
2022/08/13 20:50:32;;;;;;;;;;;;;;;26.19;28.64;99410.31;1083534;54;19939;-76
2022/08/13 20:51:33;;;;;;;;;;;;;;;26.18;28.74;99405.13;1083517;54;19939;-75
2022/08/13 20:52:36;;;;;;;;;;;;;;;26.17;29.05;99415.22;1083846;39;20436;-75
2022/08/13 20:53:40;;;;;;;;;;;;;;;26.17;29.55;99417.97;1084142;39;20367;-76
2022/08/13 20:54:41;;;;;;;;;;;;;;;26.15;29.82;99418.25;1083641;54;19947;-75
2022/08/13 20:55:45;;;;;;;;;;;;;;;26.13;29.54;99419.59;1083571;54;20055;-75
2022/08/13 20:56:49;;;;;;;;;;;;;;;26.05;31.19;99428.28;1084100;39;20441;-76
2022/08/13 20:57:53;;;;;;;;;;;;;;;26.02;30.95;99432.38;1085739;39;20345;-76
2022/08/13 20:58:54;;;;;;;;;;;;;;;25.85;32.01;99437.97;1084158;39;20357;-76
2022/08/13 20:59:57;;;;;;;;;;;;;;;25.74;32.72;99450.72;1084272;39;20449;-76
2022/08/13 21:00:59;;;;;;;;;;;;;;;25.60;32.65;99450.31;1082404;54;19981;-76
2022/08/13 21:02:02;;;;;;;;;;;;;;;25.46;31.58;99449.09;1082385;54;19946;-75
2022/08/13 21:03:04;;;;;;;;;;;;;;;25.41;31.39;99441.69;1082344;54;19966;-75
2022/08/13 21:04:09;;;;;;;;;;;;;;;25.33;31.51;99440.19;1082398;54;19950;-76
2022/08/13 21:05:10;;;;;;;;;;;;;;;25.34;31.42;99436.38;1082495;54;19970;-75
2022/08/13 21:06:14;;;;;;;;;;;;;;;25.40;31.38;99433.75;1082370;54;19950;-75
2022/08/13 21:07:16;;;;;;;;;;;;;;;25.42;31.09;99432.38;1082183;54;19950;-76
2022/08/13 21:08:20;;;;;;;;;;;;;;;25.46;30.86;99424.50;1082030;54;20481;-75
2022/08/13 21:09:21;;;;;;;;;;;;;;;25.45;30.36;99426.41;1083424;54;20038;-75
2022/08/13 21:10:26;;;;;;;;;;;;;;;25.44;29.85;99440.31;1083428;54;19962;-76
2022/08/13 21:11:28;;;;;;;;;;;;;;;25.41;29.93;99438.13;1083484;54;19962;-75
2022/08/13 21:12:34;;;;;;;;;;;;;;;25.42;29.98;99437.84;1083407;54;19951;-75
2022/08/13 21:13:35;;;;;;;;;;;;;;;25.47;29.86;99437.09;1083568;54;19966;-76
2022/08/13 21:14:39;;;;;;;;;;;;;;;25.34;30.17;99438.28;1083526;54;19955;-75
2022/08/13 21:15:40;;;;;;;;;;;;;;;25.38;30.11;99434.78;1083490;54;19972;-75
2022/08/13 21:16:44;;;;;;;;;;;;;;;25.34;30.09;99433.63;1083614;54;19962;-75
2022/08/13 21:17:45;;;;;;;;;;;;;;;25.31;30.08;99431.44;1083618;54;19951;-75
2022/08/13 21:18:49;;;;;;;;;;;;;;;25.34;30.28;99435.56;1083499;54;20015;-75
2022/08/13 21:19:50;;;;;;;;;;;;;;;25.35;30.01;99437.22;1083858;39;20675;-76
2022/08/13 21:20:54;;;;;;;;;;;;;;;25.32;30.25;99433.06;1083440;54;19939;-75
2022/08/13 21:21:55;;;;;;;;;;;;;;;25.34;30.13;99428.16;1083314;54;19947;-75
2022/08/13 21:22:59;;;;;;;;;;;;;;;25.31;30.38;99431.44;1083889;39;20381;-76
2022/08/13 21:24:01;;;;;;;;;;;;;;;25.28;30.24;99431.94;1083398;54;19946;-76
2022/08/13 21:25:04;;;;;;;;;;;;;;;25.27;30.23;99430.28;1083513;54;19946;-75
2022/08/13 21:26:06;;;;;;;;;;;;;;;25.27;30.38;99427.56;1083459;54;19950;-76
2022/08/13 21:27:11;;;;;;;;;;;;;;;25.25;30.32;99429.72;1083848;39;20361;-76
2022/08/13 21:28:15;;;;;;;;;;;;;;;25.27;30.52;99430.28;1083086;54;20090;-75
2022/08/13 21:29:19;;;;;;;;;;;;;;;25.27;30.15;99430.28;1083605;54;19951;-75
2022/08/13 21:30:20;;;;;;;;;;;;;;;25.25;30.48;99426.97;1083820;39;20334;-75
2022/08/13 21:31:24;;;;;;;;;;;;;;;25.19;30.82;99428.81;1083964;54;19962;-75
2022/08/13 21:32:28;;;;;;;;;;;;;;;25.19;30.54;99428.00;1083751;54;20453;-75
2022/08/13 21:33:33;;;;;;;;;;;;;;;25.16;30.87;99420.31;1083746;54;19947;-75
2022/08/13 21:34:34;;;;;;;;;;;;;;;25.11;31.13;99428.47;1083668;54;19938;-75
2022/08/13 21:35:39;;;;;;;;;;;;;;;25.13;30.78;99426.31;1083665;54;19951;-75
2022/08/13 21:36:40;;;;;;;;;;;;;;;25.13;30.66;99426.31;1083670;54;19977;-75
2022/08/13 21:37:43;;;;;;;;;;;;;;;25.17;30.60;99435.63;1083888;54;20030;-76
2022/08/13 21:38:47;;;;;;;;;;;;;;;25.20;30.92;99435.13;1083314;54;19971;-76
2022/08/13 21:39:48;;;;;;;;;;;;;;;25.12;31.22;99452.81;1083163;54;19962;-75
2022/08/13 21:40:52;;;;;;;;;;;;;;;25.08;30.90;99457.97;1083858;54;19947;-76
2022/08/13 21:41:53;;;;;;;;;;;;;;;25.05;31.13;99454.94;1083862;54;20033;-75
2022/08/13 21:42:58;;;;;;;;;;;;;;;25.01;31.09;99459.25;1083474;54;19947;-75
2022/08/13 21:44:02;;;;;;;;;;;;;;;25.02;30.86;99447.22;1084618;31;20440;-75
2022/08/13 21:45:07;;;;;;;;;;;;;;;25.06;30.88;99451.13;1083593;54;19976;-76
2022/08/13 21:46:10;;;;;;;;;;;;;;;24.95;31.23;99450.16;1084127;39;20337;-75
2022/08/13 21:47:13;;;;;;;;;;;;;;;24.84;31.29;99448.38;1083385;54;19946;-75
2022/08/13 21:48:17;;;;;;;;;;;;;;;24.94;31.11;99448.50;1083469;54;19970;-75
2022/08/13 21:49:18;;;;;;;;;;;;;;;24.99;30.80;99434.06;1083791;54;19973;-75
2022/08/13 21:50:22;;;;;;;;;;;;;;;24.99;30.92;99434.91;1083418;54;20434;-75
2022/08/13 21:51:23;;;;;;;;;;;;;;;24.97;31.22;99433.50;1083395;54;19954;-76
2022/08/13 21:52:27;;;;;;;;;;;;;;;24.96;31.50;99432.66;1083475;54;20046;-75
2022/08/13 21:53:31;;;;;;;;;;;;;;;24.95;31.76;99436.47;1083560;54;19973;-76
2022/08/13 21:54:32;;;;;;;;;;;;;;;24.98;31.56;99437.91;1083698;54;19946;-75
2022/08/13 21:55:36;;;;;;;;;;;;;;;24.98;31.61;99437.91;1083878;39;20430;-75
2022/08/13 21:56:37;;;;;;;;;;;;;;;25.01;31.01;99435.47;1083888;39;20591;-75
2022/08/13 21:57:41;;;;;;;;;;;;;;;25.02;31.01;99442.59;1083629;54;19939;-75
2022/08/13 21:58:42;;;;;;;;;;;;;;;25.03;31.15;99433.28;1084244;39;20381;-76
2022/08/13 21:59:49;;;;;;;;;;;;;;;25.08;31.18;99438.84;1083724;54;19954;-76
2022/08/13 22:00:52;;;;;;;;;;;;;;;25.11;30.80;99433.94;1083909;54;19970;-76
2022/08/13 22:01:53;;;;;;;;;;;;;;;25.10;31.03;99443.22;1083456;54;19947;-76
2022/08/13 22:02:58;;;;;;;;;;;;;;;25.08;31.12;99438.84;1083743;54;19971;-75
2022/08/13 22:03:59;;;;;;;;;;;;;;;25.02;31.38;99433.56;1085702;54;19998;-75
2022/08/13 22:05:03;;;;;;;;;;;;;;;25.07;30.98;99431.72;1089793;39;20572;-76
2022/08/13 22:06:06;;;;;;;;;;;;;;;25.02;31.64;99439.88;1086872;54;19950;-76
2022/08/13 22:07:10;;;;;;;;;;;;;;;24.96;32.01;99434.59;1086811;54;19994;-75
2022/08/13 22:08:11;;;;;;;;;;;;;;;24.87;32.18;99442.41;1086964;54;19938;-76
2022/08/13 22:09:14;;;;;;;;;;;;;;;24.76;32.77;99446.91;1086939;54;19942;-76
2022/08/13 22:10:16;;;;;;;;;;;;;;;24.68;32.92;99445.44;1087196;39;20377;-75
2022/08/13 22:11:20;;;;;;;;;;;;;;;24.59;33.25;99444.19;1087810;39;20405;-75
2022/08/13 22:12:25;;;;;;;;;;;;;;;24.56;33.13;99442.78;1086951;54;19946;-76
2022/08/13 22:13:30;;;;;;;;;;;;;;;24.50;33.55;99438.34;1086865;54;20064;-76
2022/08/13 22:14:34;;;;;;;;;;;;;;;24.53;33.56;99445.22;1087230;54;19946;-75
2022/08/13 22:15:40;;;;;;;;;;;;;;;24.55;33.36;99445.78;1086992;54;19939;-75
2022/08/13 22:16:43;;;;;;;;;;;;;;;24.54;33.59;99446.88;1087312;39;20610;-77
2022/08/13 22:17:47;;;;;;;;;;;;;;;24.50;33.60;99451.16;1086800;54;19946;-76
2022/08/13 22:18:48;;;;;;;;;;;;;;;24.53;33.43;99454.22;1084184;54;19954;-75